Time;durP1;ratioP1;P1;durP2;ratioP2;P2;SDS_P1;SDS_P2;PMS_P1;PMS_P2;Temp;Humidity;BMP_temperature;BMP_pressure;BME280_temperature;BME280_humidity;BME280_pressure;Samples;Min_cycle;Max_cycle;Signal;HPM_P1;HPM_P2
2023/09/14 00:00:15;;;;;;;8.95;3.28;;;;;;;12.23;100.00;101131.13;5033908;28;20029;-96
2023/09/14 00:02:41;;;;;;;10.15;4.13;;;;;;;12.13;100.00;101125.59;5033994;28;20375;-95
2023/09/14 00:05:07;;;;;;;8.60;3.90;;;;;;;12.21;100.00;101127.78;5034003;28;20029;-96
2023/09/14 00:07:32;;;;;;;11.25;3.50;;;;;;;12.06;100.00;101123.44;5033645;28;20035;-96
2023/09/14 00:09:58;;;;;;;8.43;3.70;;;;;;;12.05;100.00;101121.78;5033937;28;20116;-96
2023/09/14 00:12:24;;;;;;;4.93;2.30;;;;;;;12.01;100.00;101115.06;5033417;28;20479;-95
2023/09/14 00:14:50;;;;;;;3.63;2.35;;;;;;;11.97;100.00;101123.00;5033585;28;20037;-96
2023/09/14 00:17:15;;;;;;;4.68;2.50;;;;;;;11.93;100.00;101115.47;5033732;28;20048;-96
2023/09/14 00:19:41;;;;;;;3.25;1.80;;;;;;;12.01;100.00;101120.25;5033357;28;20025;-95
2023/09/14 00:22:06;;;;;;;4.40;2.58;;;;;;;12.00;100.00;101116.84;5034852;28;20479;-95
2023/09/14 00:24:31;;;;;;;5.32;2.33;;;;;;;12.07;100.00;101109.56;5033645;28;20022;-96
2023/09/14 00:26:57;;;;;;;5.18;2.38;;;;;;;12.06;100.00;101115.66;5033159;28;20072;-96
2023/09/14 00:29:22;;;;;;;4.15;2.35;;;;;;;11.95;100.00;101111.06;5034753;28;20068;-95
2023/09/14 00:31:47;;;;;;;4.85;2.47;;;;;;;12.05;100.00;101108.84;5032287;28;20022;-96
2023/09/14 00:34:13;;;;;;;5.32;2.83;;;;;;;11.97;100.00;101107.50;5033112;28;20116;-96
2023/09/14 00:36:38;;;;;;;6.53;2.85;;;;;;;12.02;100.00;101096.03;5032990;28;20061;-96
2023/09/14 00:39:03;;;;;;;5.00;2.97;;;;;;;11.98;100.00;101098.78;5034054;28;20108;-95
2023/09/14 00:41:29;;;;;;;7.20;3.55;;;;;;;11.95;100.00;101091.19;5033540;28;20032;-96
2023/09/14 00:43:54;;;;;;;5.30;3.47;;;;;;;11.78;100.00;101093.81;5033008;28;20029;-96
2023/09/14 00:46:20;;;;;;;7.75;4.88;;;;;;;11.83;100.00;101088.41;5032789;28;20064;-95
2023/09/14 00:48:47;;;;;;;10.82;4.55;;;;;;;11.92;100.00;101095.69;5033091;28;20372;-96
2023/09/14 00:51:12;;;;;;;7.05;4.20;;;;;;;11.90;100.00;101087.16;5032697;28;20022;-96
2023/09/14 00:53:39;;;;;;;7.70;3.10;;;;;;;11.78;100.00;101093.81;5032496;28;20036;-95
2023/09/14 00:56:06;;;;;;;7.55;2.90;;;;;;;11.81;100.00;101087.66;5032056;28;20041;-95
2023/09/14 00:58:32;;;;;;;8.35;3.50;;;;;;;11.68;100.00;101087.41;5032140;28;20021;-95
2023/09/14 01:00:57;;;;;;;7.00;4.28;;;;;;;11.66;100.00;101084.94;5031878;28;20071;-96
2023/09/14 01:03:24;;;;;;;6.95;3.25;;;;;;;11.62;100.00;101080.00;5031752;28;20411;-96
2023/09/14 01:05:50;;;;;;;8.73;3.15;;;;;;;11.62;100.00;101087.75;5031162;28;20112;-96
2023/09/14 01:08:15;;;;;;;6.50;3.05;;;;;;;11.79;100.00;101088.53;5031702;28;20466;-96
2023/09/14 01:10:41;;;;;;;7.47;2.72;;;;;;;11.72;100.00;101088.94;5033048;28;20029;-96
2023/09/14 01:13:13;;;;;;;6.00;3.10;;;;;;;11.67;100.00;101085.75;5031975;28;20361;-95
2023/09/14 01:15:43;;;;;;;6.40;3.03;;;;;;;11.60;100.00;101093.00;5033023;28;20112;-95
2023/09/14 01:18:21;;;;;;;6.85;2.58;;;;;;;11.56;100.00;101088.91;5031752;28;20021;-95
2023/09/14 01:21:01;;;;;;;8.85;2.85;;;;;;;11.59;100.00;101085.34;5031413;28;20025;-96
2023/09/14 01:23:29;;;;;;;3.83;2.40;;;;;;;11.53;100.00;101089.91;5033228;28;20049;-96
2023/09/14 01:25:55;;;;;;;5.90;3.40;;;;;;;11.73;100.00;101086.28;5031559;28;20120;-96
2023/09/14 01:28:21;;;;;;;4.38;3.15;;;;;;;11.84;100.00;101082.31;5031777;28;20060;-95
2023/09/14 01:30:46;;;;;;;7.50;3.42;;;;;;;11.75;100.00;101086.19;5031458;28;20064;-96
2023/09/14 01:33:14;;;;;;;5.75;3.03;;;;;;;11.59;100.00;101083.56;5031520;28;20113;-96
2023/09/14 01:35:49;;;;;;;5.22;2.90;;;;;;;11.49;100.00;101087.56;5031425;28;20038;-95
2023/09/14 01:38:15;;;;;;;4.82;2.60;;;;;;;11.54;100.00;101088.97;5032046;28;20030;-96
2023/09/14 01:40:44;;;;;;;6.97;2.15;;;;;;;11.53;100.00;101095.06;5031688;28;20116;-96
2023/09/14 01:43:09;;;;;;;5.82;2.45;;;;;;;11.47;100.00;101090.19;5030839;28;20599;-96
2023/09/14 01:45:35;;;;;;;4.30;2.47;;;;;;;11.49;100.00;101097.88;5031658;28;20045;-95
2023/09/14 01:48:01;;;;;;;5.30;2.22;;;;;;;11.40;100.00;101088.00;5031394;28;20017;-96
2023/09/14 01:50:26;;;;;;;5.13;2.38;;;;;;;11.40;100.00;101095.75;5032721;28;20032;-96
2023/09/14 01:52:54;;;;;;;5.65;2.28;;;;;;;11.47;100.00;101090.19;5030885;28;20017;-96
2023/09/14 01:55:19;;;;;;;3.22;2.20;;;;;;;11.46;100.00;101093.72;5031183;28;20597;-95
2023/09/14 01:57:45;;;;;;;3.63;2.15;;;;;;;11.41;100.00;101087.94;5031397;28;20037;-95
2023/09/14 02:00:11;;;;;;;4.72;2.30;;;;;;;11.47;100.00;101090.19;5031179;28;20387;-95
2023/09/14 02:02:36;;;;;;;4.13;2.47;;;;;;;11.41;100.00;101082.78;5031361;28;20025;-95
2023/09/14 02:05:02;;;;;;;3.88;2.30;;;;;;;11.28;100.00;101079.13;5032037;28;20053;-96
2023/09/14 02:07:27;;;;;;;5.65;2.25;;;;;;;11.40;100.00;101077.66;5031536;28;20044;-96
2023/09/14 02:09:52;;;;;;;6.13;1.92;;;;;;;11.44;100.00;101077.44;5031641;28;20064;-95
2023/09/14 02:12:18;;;;;;;5.53;2.20;;;;;;;11.41;100.00;101082.78;5031596;28;20026;-95
2023/09/14 02:14:43;;;;;;;3.28;2.30;;;;;;;11.30;100.00;101078.13;5031517;28;20387;-95
2023/09/14 02:17:08;;;;;;;3.75;2.25;;;;;;;11.30;100.00;101082.47;5032281;28;20065;-95
2023/09/14 02:19:34;;;;;;;4.72;2.22;;;;;;;11.31;100.00;101079.81;5037187;28;20535;-95
2023/09/14 02:21:59;;;;;;;3.83;2.05;;;;;;;11.33;100.00;101082.31;5035560;28;20021;-95
2023/09/14 02:24:24;;;;;;;5.03;2.05;;;;;;;11.24;100.00;101077.59;5035527;28;20022;-95
2023/09/14 02:26:51;;;;;;;3.22;2.03;;;;;;;11.27;100.00;101080.88;5036177;28;20438;-95
2023/09/14 02:29:17;;;;;;;3.65;1.95;;;;;;;11.30;100.00;101082.47;5035786;28;20025;-96
2023/09/14 02:31:42;;;;;;;3.22;1.92;;;;;;;11.25;100.00;101074.09;5036664;28;20104;-96
2023/09/14 02:34:08;;;;;;;3.38;2.00;;;;;;;11.24;100.00;101072.41;5036736;28;20060;-96
2023/09/14 02:36:33;;;;;;;4.45;2.70;;;;;;;11.30;100.00;101069.53;5035151;28;20026;-96
2023/09/14 02:38:58;;;;;;;7.35;3.53;;;;;;;11.31;100.00;101073.78;5035229;28;20538;-96
2023/09/14 02:41:24;;;;;;;4.53;3.25;;;;;;;11.31;100.00;101073.78;5034438;28;20041;-96
2023/09/14 02:43:49;;;;;;;4.90;2.97;;;;;;;11.35;100.00;101072.72;5036208;28;20032;-95
2023/09/14 02:46:15;;;;;;;4.53;2.78;;;;;;;11.38;100.00;101066.56;5035211;28;20063;-96
2023/09/14 02:48:40;;;;;;;3.30;2.67;;;;;;;11.27;100.00;101067.13;5035410;28;20039;-96
2023/09/14 02:51:06;;;;;;;4.60;2.33;;;;;;;11.27;100.00;101067.94;5034824;28;20124;-96
2023/09/14 02:53:31;;;;;;;5.93;2.45;;;;;;;11.27;100.00;101061.94;5034703;28;20480;-95
2023/09/14 02:55:57;;;;;;;6.13;2.42;;;;;;;11.26;100.00;101060.25;5035011;28;20025;-93
2023/09/14 02:58:22;;;;;;;6.60;2.70;;;;;;;11.22;100.00;101056.19;5034997;28;20284;-95
2023/09/14 03:00:48;;;;;;;4.22;2.30;;;;;;;11.13;100.00;101060.88;5033163;28;20488;-95
2023/09/14 03:03:13;;;;;;;4.38;2.58;;;;;;;11.12;100.00;101056.63;5035887;28;20433;-96
2023/09/14 03:05:39;;;;;;;5.70;2.58;;;;;;;11.17;100.00;101051.25;5034862;28;20025;-96
2023/09/14 03:08:04;;;;;;;2.83;2.17;;;;;;;11.20;100.00;101047.66;5034751;28;20365;-96
2023/09/14 03:10:30;;;;;;;3.55;2.00;;;;;;;11.22;100.00;101048.44;5035905;28;20092;-95
2023/09/14 03:12:55;;;;;;;5.25;2.40;;;;;;;11.28;100.00;101046.34;5035589;28;20383;-95
2023/09/14 03:15:21;;;;;;;3.33;2.15;;;;;;;11.29;100.00;101034.25;5033849;28;20029;-96
2023/09/14 03:17:46;;;;;;;6.35;2.58;;;;;;;11.25;100.00;101037.94;5035331;28;20083;-96
2023/09/14 03:20:12;;;;;;;3.33;2.13;;;;;;;11.14;100.00;101036.72;5034777;28;20017;-95
2023/09/14 03:22:37;;;;;;;6.50;2.80;;;;;;;11.18;100.00;101042.56;5034321;28;20057;-94
2023/09/14 03:25:03;;;;;;;3.17;2.40;;;;;;;11.24;100.00;101044.00;5035564;28;20035;-95
2023/09/14 03:27:29;;;;;;;4.70;2.40;;;;;;;11.15;100.00;101047.91;5035484;28;20495;-96
2023/09/14 03:29:54;;;;;;;7.25;3.30;;;;;;;11.08;100.00;101043.94;5034304;28;20360;-96
2023/09/14 03:32:19;;;;;;;4.65;2.40;;;;;;;11.11;100.00;101051.53;5034016;28;20025;-96
2023/09/14 03:34:45;;;;;;;3.45;2.28;;;;;;;11.17;100.00;101040.91;5034354;28;20041;-94
2023/09/14 03:37:10;;;;;;;4.35;2.80;;;;;;;11.20;100.00;101039.91;5034261;28;20029;-96
2023/09/14 03:39:36;;;;;;;6.00;2.75;;;;;;;11.19;100.00;101038.22;5034035;28;20075;-96
2023/09/14 03:42:01;;;;;;;8.52;3.05;;;;;;;11.25;100.00;101043.94;5035269;28;20033;-94
2023/09/14 03:44:26;;;;;;;6.35;2.80;;;;;;;11.22;100.00;101032.94;5034748;28;20056;-94
2023/09/14 03:46:52;;;;;;;3.10;2.47;;;;;;;11.33;100.00;101031.44;5034249;28;20037;-95
2023/09/14 03:49:17;;;;;;;6.32;3.08;;;;;;;11.20;100.00;101039.91;5034163;28;20021;-96
2023/09/14 03:51:42;;;;;;;5.20;3.03;;;;;;;10.96;100.00;101024.72;5034502;28;20078;-95
2023/09/14 03:54:08;;;;;;;3.25;2.85;;;;;;;10.89;100.00;101028.50;5034358;28;20541;-96
2023/09/14 03:56:34;;;;;;;5.53;3.33;;;;;;;10.92;100.00;101030.94;5033273;28;20026;-95
2023/09/14 03:59:00;;;;;;;3.85;2.65;;;;;;;10.97;100.00;101023.78;5034128;28;20025;-96
2023/09/14 04:01:25;;;;;;;10.85;3.35;;;;;;;10.81;100.00;101035.81;5035147;28;20029;-96
2023/09/14 04:03:50;;;;;;;4.68;2.95;;;;;;;10.90;100.00;101028.44;5034221;28;20032;-95
2023/09/14 04:06:16;;;;;;;5.00;2.88;;;;;;;10.91;100.00;101022.38;5033459;28;20502;-96
2023/09/14 04:08:41;;;;;;;5.30;2.70;;;;;;;10.87;100.00;101032.91;5033815;28;20067;-95
2023/09/14 04:11:07;;;;;;;3.50;2.83;;;;;;;10.74;100.00;101037.03;5033229;28;20057;-94
2023/09/14 04:13:34;;;;;;;4.93;3.17;;;;;;;10.81;100.00;101028.91;5035050;28;20021;-95
2023/09/14 04:16:04;;;;;;;4.15;3.42;;;;;;;10.80;100.00;101027.25;5033532;28;20036;-95
2023/09/14 04:18:38;;;;;;;4.07;2.60;;;;;;;10.76;100.00;101025.72;5033520;28;20124;-96
2023/09/14 04:21:04;;;;;;;5.97;2.97;;;;;;;10.80;100.00;101026.38;5033983;28;20113;-95
2023/09/14 04:23:30;;;;;;;5.38;2.78;;;;;;;10.82;100.00;101024.56;5032431;28;20426;-96
2023/09/14 04:25:55;;;;;;;6.10;2.72;;;;;;;10.75;100.00;101018.03;5032808;28;20026;-96
2023/09/14 04:28:23;;;;;;;5.57;2.60;;;;;;;10.79;100.00;101022.13;5032839;28;20026;-95
2023/09/14 04:30:52;;;;;;;5.05;2.95;;;;;;;10.79;100.00;101019.56;5032360;28;20471;-95
2023/09/14 04:33:18;;;;;;;6.22;3.17;;;;;;;10.86;100.00;101026.09;5032321;28;20025;-95
2023/09/14 04:35:44;;;;;;;5.53;3.08;;;;;;;10.98;100.00;101017.75;5032347;28;20028;-95
2023/09/14 04:38:10;;;;;;;6.05;3.25;;;;;;;10.80;100.00;101026.38;5032428;28;20018;-96
2023/09/14 04:40:41;;;;;;;4.35;2.95;;;;;;;10.78;100.00;101023.03;5031407;28;20064;-96
2023/09/14 04:43:08;;;;;;;7.90;3.17;;;;;;;10.91;100.00;101024.94;5033643;28;20018;-95
2023/09/14 04:45:34;;;;;;;6.20;3.30;;;;;;;10.70;100.00;101026.84;5032143;28;20037;-96
2023/09/14 04:47:59;;;;;;;4.82;2.75;;;;;;;10.69;100.00;101025.16;5033618;28;20025;-96
2023/09/14 04:50:25;;;;;;;6.05;3.30;;;;;;;10.73;100.00;101036.19;5032120;28;20025;-96
2023/09/14 04:52:50;;;;;;;4.35;3.05;;;;;;;10.75;100.00;101021.44;5032218;28;20017;-95
2023/09/14 04:55:16;;;;;;;3.20;2.80;;;;;;;10.69;100.00;101014.00;5031819;28;20593;-96
2023/09/14 04:57:41;;;;;;;6.93;3.38;;;;;;;10.80;100.00;101013.47;5031686;28;20035;-95
2023/09/14 05:00:10;;;;;;;9.77;3.55;;;;;;;10.67;100.00;101019.22;5031917;28;20108;-95
2023/09/14 05:02:36;;;;;;;5.20;3.65;;;;;;;10.63;100.00;101020.31;5031809;28;20025;-95
2023/09/14 05:05:03;;;;;;;4.88;3.10;;;;;;;10.58;100.00;101017.09;5031940;28;20033;-95
2023/09/14 05:07:28;;;;;;;5.78;3.25;;;;;;;10.67;100.00;101024.41;5031067;28;20491;-96
2023/09/14 05:09:53;;;;;;;5.57;3.28;;;;;;;10.71;100.00;101022.53;5032658;28;20037;-92
2023/09/14 05:12:19;;;;;;;4.85;3.33;;;;;;;10.76;100.00;101024.88;5032799;28;20491;-96
2023/09/14 05:14:44;;;;;;;6.18;3.58;;;;;;;10.76;100.00;101025.72;5032415;28;20116;-95
2023/09/14 05:17:10;;;;;;;5.32;4.28;;;;;;;10.79;100.00;101028.13;5037876;28;20055;-94
2023/09/14 05:19:35;;;;;;;7.82;3.83;;;;;;;10.73;100.00;101020.69;5043855;28;20483;-96
2023/09/14 05:22:01;;;;;;;6.38;3.70;;;;;;;10.65;100.00;101023.63;5038607;28;20491;-96
2023/09/14 05:24:26;;;;;;;5.43;3.40;;;;;;;10.68;100.00;101030.38;5039351;28;20021;-96
2023/09/14 05:26:52;;;;;;;5.03;3.33;;;;;;;10.68;100.00;101032.97;5038692;28;20033;-96
2023/09/14 05:29:19;;;;;;;4.82;3.05;;;;;;;10.62;100.00;101034.13;5037724;28;20425;-96
2023/09/14 05:31:44;;;;;;;6.18;3.55;;;;;;;10.65;100.00;101035.72;5042448;28;20017;-94
2023/09/14 05:34:10;;;;;;;7.63;3.90;;;;;;;10.67;100.00;101036.47;5034511;28;20029;-94
2023/09/14 05:36:36;;;;;;;4.70;3.65;;;;;;;10.61;100.00;101032.44;5030827;28;20094;-95
2023/09/14 05:39:01;;;;;;;9.10;4.45;;;;;;;10.61;100.00;101042.78;5031313;28;20036;-91
2023/09/14 05:41:26;;;;;;;7.55;3.53;;;;;;;10.66;100.00;101038.22;5031206;28;20112;-95
2023/09/14 05:43:52;;;;;;;7.25;4.03;;;;;;;10.67;100.00;101037.31;5029669;28;20017;-93
2023/09/14 05:46:17;;;;;;;5.55;4.22;;;;;;;10.68;100.00;101039.00;5031627;28;20084;-96
2023/09/14 05:48:44;;;;;;;5.53;3.67;;;;;;;10.68;100.00;101041.56;5035244;28;20025;-96
2023/09/14 05:51:09;;;;;;;6.13;3.90;;;;;;;10.68;100.00;101046.75;5034093;28;20017;-93
2023/09/14 05:53:35;;;;;;;10.35;5.60;;;;;;;10.76;100.00;101037.78;5032006;28;20026;-92
2023/09/14 05:56:00;;;;;;;6.80;3.75;;;;;;;10.78;100.00;101033.34;5041963;28;20107;-96
2023/09/14 05:58:26;;;;;;;5.95;3.78;;;;;;;10.81;100.00;101038.41;5029766;28;20116;-93
2023/09/14 06:00:52;;;;;;;5.55;3.65;;;;;;;10.86;100.00;101031.25;5030293;28;20463;-92
2023/09/14 06:03:17;;;;;;;5.57;3.70;;;;;;;10.93;100.00;101032.63;5019606;28;20478;-92
2023/09/14 06:05:46;;;;;;;9.30;3.70;;;;;;;10.92;100.00;101038.69;5033470;28;20030;-93
2023/09/14 06:08:12;;;;;;;5.07;3.60;;;;;;;11.10;100.00;101036.97;5029970;28;20098;-95
2023/09/14 06:10:37;;;;;;;12.52;3.83;;;;;;;11.08;100.00;101047.34;5026712;28;20550;-92
2023/09/14 06:13:04;;;;;;;5.15;3.33;;;;;;;11.09;100.00;101038.69;5028777;28;20109;-96
2023/09/14 06:15:29;;;;;;;5.30;3.60;;;;;;;11.21;100.00;101042.41;5023489;28;20148;-93
2023/09/14 06:17:55;;;;;;;7.30;3.88;;;;;;;11.29;100.00;101042.00;5029387;28;20507;-94
2023/09/14 06:20:20;;;;;;;5.68;3.45;;;;;;;11.37;100.00;101036.47;5028198;28;20025;-93
2023/09/14 06:22:45;;;;;;;6.45;3.45;;;;;;;11.41;100.00;101040.56;5028125;28;20064;-94
2023/09/14 06:25:11;;;;;;;6.43;3.95;;;;;;;11.49;100.00;101043.59;5028628;28;20029;-93
2023/09/14 06:27:36;;;;;;;6.35;4.13;;;;;;;11.65;100.00;101036.69;5033150;28;20434;-94
2023/09/14 06:30:02;;;;;;;6.05;3.55;;;;;;;11.79;100.00;101038.56;5033433;28;20029;-91
2023/09/14 06:32:28;;;;;;;9.27;4.95;;;;;;;11.95;100.00;101034.28;5030315;28;20028;-92
2023/09/14 06:34:54;;;;;;;7.43;4.32;;;;;;;12.09;100.00;101032.69;5014309;28;20492;-93
2023/09/14 06:37:20;;;;;;;9.93;4.65;;;;;;;12.20;100.00;101040.72;5020055;28;20041;-92
2023/09/14 06:39:45;;;;;;;6.28;4.22;;;;;;;12.26;100.00;101042.13;5029670;28;20029;-93
2023/09/14 06:42:11;;;;;;;7.63;4.43;;;;;;;12.27;100.00;101051.59;5029760;28;20550;-94
2023/09/14 06:44:36;;;;;;;7.32;4.30;;;;;;;12.30;100.00;101048.81;5030020;28;20033;-94
2023/09/14 06:47:01;;;;;;;7.53;4.00;;;;;;;12.36;100.00;101051.91;5029882;28;20030;-93
2023/09/14 06:49:27;;;;;;;9.88;4.43;;;;;;;12.45;100.00;101047.97;5028395;28;20025;-93
2023/09/14 06:51:52;;;;;;;10.10;3.97;;;;;;;12.62;100.00;101058.22;5029514;28;20554;-92
2023/09/14 06:54:17;;;;;;;11.55;4.47;;;;;;;12.79;100.00;101052.09;5030520;28;20573;-94
2023/09/14 06:56:43;;;;;;;7.10;4.00;;;;;;;12.94;100.00;101044.34;5034385;28;20091;-96
2023/09/14 06:59:08;;;;;;;7.38;4.22;;;;;;;13.10;100.00;101039.97;5024248;28;20025;-96
2023/09/14 07:01:35;;;;;;;9.35;4.20;;;;;;;13.18;100.00;101040.34;5038352;28;20502;-96
2023/09/14 07:04:01;;;;;;;9.25;4.18;;;;;;;13.21;100.00;101042.75;5023798;28;20026;-94
2023/09/14 07:06:26;;;;;;;8.15;4.13;;;;;;;13.19;100.00;101046.34;5033340;28;20472;-93
2023/09/14 07:08:51;;;;;;;6.32;3.55;;;;;;;13.16;100.00;101047.38;5033241;28;20418;-93
2023/09/14 07:11:17;;;;;;;6.35;3.92;;;;;;;13.12;100.00;101045.91;5033878;28;20029;-94
2023/09/14 07:13:42;;;;;;;7.95;4.20;;;;;;;13.09;100.00;101058.19;5034763;28;20483;-94
2023/09/14 07:16:08;;;;;;;9.90;3.88;;;;;;;13.11;100.00;101054.56;5036226;28;20108;-93
2023/09/14 07:18:34;;;;;;;7.30;4.43;;;;;;;13.14;100.00;101056.97;5033848;28;20092;-93
2023/09/14 07:21:03;;;;;;;8.18;4.05;;;;;;;13.17;100.00;101058.59;5034979;28;20013;-93
2023/09/14 07:23:30;;;;;;;6.85;3.97;;;;;;;13.16;100.00;101057.72;5033367;28;20037;-92
2023/09/14 07:25:56;;;;;;;5.72;3.95;;;;;;;13.19;100.00;101056.72;5034627;28;20057;-94
2023/09/14 07:28:21;;;;;;;6.50;3.65;;;;;;;13.31;100.00;101058.63;5034516;28;20385;-94
2023/09/14 07:30:48;;;;;;;7.75;3.80;;;;;;;13.49;100.00;101056.72;5034396;28;20032;-93
2023/09/14 07:33:14;;;;;;;6.55;3.78;;;;;;;13.93;100.00;101060.97;5033465;28;20013;-92
2023/09/14 07:35:39;;;;;;;7.43;3.83;;;;;;;13.96;100.00;101055.59;5033778;28;20025;-92
2023/09/14 07:38:08;;;;;;;10.43;3.90;;;;;;;14.06;100.00;101054.06;5035039;28;20051;-92
2023/09/14 07:40:33;;;;;;;5.75;3.75;;;;;;;14.11;100.00;101053.78;5034294;28;20111;-91
2023/09/14 07:42:58;;;;;;;6.75;3.35;;;;;;;14.19;100.00;101055.91;5034051;28;20053;-92
2023/09/14 07:45:24;;;;;;;7.45;3.72;;;;;;;14.30;100.00;101058.66;5034252;28;20033;-91
2023/09/14 07:47:49;;;;;;;5.57;3.65;;;;;;;14.46;100.00;101054.19;5032933;28;20026;-91
2023/09/14 07:50:14;;;;;;;6.88;3.42;;;;;;;14.73;100.00;101062.00;5032493;28;20450;-91
2023/09/14 07:52:41;;;;;;;4.65;3.28;;;;;;;15.15;100.00;101061.88;5033688;28;20017;-92
2023/09/14 07:55:07;;;;;;;4.18;2.75;;;;;;;17.47;92.18;101061.78;5033666;28;20543;-92
2023/09/14 07:57:33;;;;;;;8.30;3.00;;;;;;;18.61;77.26;101050.25;5033709;28;20030;-92
2023/09/14 07:59:58;;;;;;;5.40;2.88;;;;;;;19.78;70.50;101053.59;5033558;28;20022;-92
2023/09/14 08:02:25;;;;;;;10.73;2.75;;;;;;;20.98;63.50;101058.72;5033501;28;20068;-92
2023/09/14 08:04:51;;;;;;;6.55;2.45;;;;;;;22.72;56.15;101054.38;5032780;28;20056;-90
2023/09/14 08:07:16;;;;;;;5.78;2.10;;;;;;;24.09;51.04;101061.56;5033228;28;20499;-91
2023/09/14 08:09:44;;;;;;;5.88;2.05;;;;;;;24.44;48.49;101062.31;5033265;28;20029;-90
2023/09/14 08:12:09;;;;;;;5.28;2.30;;;;;;;25.38;46.79;101059.09;5033294;28;20034;-90
2023/09/14 08:14:34;;;;;;;5.18;2.30;;;;;;;25.47;45.98;101054.63;5033451;28;20486;-92
2023/09/14 08:17:00;;;;;;;4.93;2.35;;;;;;;25.74;45.26;101063.94;5033204;28;20039;-92
2023/09/14 08:19:25;;;;;;;4.82;2.05;;;;;;;25.83;44.92;101070.03;5032807;28;20356;-93
2023/09/14 08:21:52;;;;;;;3.83;1.70;;;;;;;25.89;44.75;101069.34;5033167;28;20488;-90
2023/09/14 08:24:17;;;;;;;5.05;1.70;;;;;;;25.88;43.81;101059.78;5033155;28;20071;-93
2023/09/14 08:26:42;;;;;;;6.63;1.80;;;;;;;25.72;44.38;101057.16;5033275;28;20029;-93
2023/09/14 08:29:08;;;;;;;5.72;1.70;;;;;;;26.22;43.51;101058.59;5033036;28;20025;-91
2023/09/14 08:31:33;;;;;;;9.02;1.70;;;;;;;25.67;44.06;101056.88;5032839;28;20029;-90
2023/09/14 08:33:58;;;;;;;3.67;1.40;;;;;;;26.21;41.75;101059.56;5032029;28;20029;-90
2023/09/14 08:36:24;;;;;;;5.28;1.50;;;;;;;26.23;41.37;101053.09;5031543;28;20040;-90
2023/09/14 08:38:49;;;;;;;3.85;1.30;;;;;;;26.16;41.75;101054.00;5032862;28;20183;-90
2023/09/14 08:41:44;;;;;;;4.00;1.45;;;;;;;26.62;42.06;101043.41;5032840;28;20036;-91
2023/09/14 08:44:12;;;;;;;5.53;1.23;;;;;;;26.86;40.72;101045.03;5031385;28;20029;-90
2023/09/14 08:46:39;;;;;;;4.40;1.38;;;;;;;26.48;40.88;101045.81;5032650;28;20368;-91
2023/09/14 08:49:05;;;;;;;3.50;1.33;;;;;;;27.10;40.21;101043.97;5032069;28;20057;-91
2023/09/14 08:51:33;;;;;;;2.75;1.50;;;;;;;26.90;40.16;101052.44;5032635;28;20483;-91
2023/09/14 08:53:59;;;;;;;2.75;1.20;;;;;;;27.42;39.59;101044.63;5032568;28;20025;-90
2023/09/14 08:56:26;;;;;;;4.60;1.20;;;;;;;26.24;41.37;101048.66;5032460;28;20033;-91
2023/09/14 08:58:54;;;;;;;3.13;1.05;;;;;;;26.96;40.86;101056.19;5032379;28;20483;-91
2023/09/14 09:01:19;;;;;;;3.92;1.33;;;;;;;26.66;40.43;101050.84;5032347;28;20040;-91
2023/09/14 09:03:45;;;;;;;6.32;1.05;;;;;;;26.32;40.72;101059.19;5031742;28;20021;-91
2023/09/14 09:06:11;;;;;;;3.60;1.08;;;;;;;25.95;41.55;101047.50;5032492;28;20022;-91
2023/09/14 09:08:37;;;;;;;3.83;1.15;;;;;;;25.83;42.18;101049.69;5032311;28;20056;-91
2023/09/14 09:11:03;;;;;;;3.25;1.00;;;;;;;25.85;42.63;101052.16;5032197;28;20021;-91
2023/09/14 09:13:36;;;;;;;2.38;1.02;;;;;;;25.32;42.98;101043.94;5032199;28;20395;-92
2023/09/14 09:16:02;;;;;;;4.35;1.50;;;;;;;25.69;42.55;101047.75;5032149;28;20033;-93
2023/09/14 09:18:27;;;;;;;2.22;1.17;;;;;;;25.98;41.77;101049.81;5031725;28;20083;-93
2023/09/14 09:20:53;;;;;;;3.88;1.02;;;;;;;26.16;42.05;101046.06;5032113;28;20017;-93
2023/09/14 09:23:21;;;;;;;2.95;1.30;;;;;;;25.73;42.76;101053.56;5031928;28;20063;-93
2023/09/14 09:25:51;;;;;;;5.93;1.63;;;;;;;26.23;41.31;101053.09;5031437;28;20035;-93
2023/09/14 09:28:16;;;;;;;4.97;1.35;;;;;;;26.93;40.63;101045.94;5031881;28;20060;-93
2023/09/14 09:30:42;;;;;;;1.77;0.80;;;;;;;26.18;42.17;101044.06;5032139;28;20057;-92
2023/09/14 09:33:08;;;;;;;3.17;1.20;;;;;;;25.26;42.67;101046.44;5031221;28;20017;-92
2023/09/14 09:35:34;;;;;;;1.90;1.10;;;;;;;24.77;43.35;101052.59;5031813;28;20031;-92
2023/09/14 09:38:08;;;;;;;3.78;1.67;;;;;;;24.90;44.55;101052.09;5032021;28;20530;-92
2023/09/14 09:40:34;;;;;;;4.22;1.33;;;;;;;24.53;44.51;101056.06;5031797;28;20428;-93
2023/09/14 09:43:04;;;;;;;5.18;1.45;;;;;;;25.09;44.10;101051.75;5031851;28;20021;-93
2023/09/14 09:45:29;;;;;;;4.63;1.35;;;;;;;24.96;43.45;101056.72;5031874;28;20022;-92
2023/09/14 09:47:55;;;;;;;4.65;1.42;;;;;;;25.29;43.05;101051.38;5031215;28;20026;-93
2023/09/14 09:50:22;;;;;;;4.57;1.42;;;;;;;25.57;43.47;101051.78;5031869;28;20418;-93
2023/09/14 09:52:49;;;;;;;8.05;2.22;;;;;;;25.75;42.04;101056.81;5031529;28;20414;-92
2023/09/14 09:55:24;;;;;;;5.18;2.05;;;;;;;25.53;43.25;101050.47;5031578;28;20429;-93
2023/09/14 09:57:51;;;;;;;3.67;1.42;;;;;;;25.32;43.99;101045.78;5031649;28;20096;-92
2023/09/14 10:00:19;;;;;;;3.42;1.58;;;;;;;25.23;43.18;101049.44;5030325;28;20021;-93
2023/09/14 10:02:45;;;;;;;4.40;1.77;;;;;;;25.37;43.55;101046.91;5030703;28;20025;-93
2023/09/14 10:05:11;;;;;;;4.63;1.90;;;;;;;25.69;44.27;101046.94;5031443;28;20037;-92
2023/09/14 10:07:40;;;;;;;3.10;1.40;;;;;;;25.70;44.15;101043.28;5031670;28;20034;-93
2023/09/14 10:10:07;;;;;;;4.10;1.40;;;;;;;25.69;43.28;101041.66;5031595;28;20021;-92
2023/09/14 10:12:38;;;;;;;5.70;1.65;;;;;;;25.44;43.29;101043.59;5031584;28;20029;-92
2023/09/14 10:15:05;;;;;;;5.28;1.85;;;;;;;25.49;43.69;101035.97;5031551;28;20029;-92
2023/09/14 10:17:31;;;;;;;21.35;3.50;;;;;;;26.13;45.11;101035.81;5030985;28;20034;-93
2023/09/14 10:19:58;;;;;;;3.45;1.40;;;;;;;26.59;41.99;101031.38;5031563;28;20071;-92
2023/09/14 10:22:25;;;;;;;5.25;1.42;;;;;;;26.48;42.03;101022.00;5030067;28;20029;-93
2023/09/14 10:24:51;;;;;;;2.35;1.20;;;;;;;26.24;40.90;101016.91;5031932;28;20029;-92
2023/09/14 10:27:16;;;;;;;2.67;1.13;;;;;;;26.39;42.09;101022.25;5031748;28;20026;-92
2023/09/14 10:29:43;;;;;;;1.80;1.05;;;;;;;26.66;42.53;101023.53;5031688;28;20033;-92
2023/09/14 10:32:11;;;;;;;4.75;1.23;;;;;;;26.43;40.42;101016.44;5030769;28;20022;-92
2023/09/14 10:34:39;;;;;;;5.20;1.52;;;;;;;26.04;40.98;101013.88;5031195;28;20063;-92
2023/09/14 10:37:04;;;;;;;5.60;1.92;;;;;;;26.04;40.95;101014.72;5031712;28;20033;-93
2023/09/14 10:39:30;;;;;;;4.30;1.00;;;;;;;25.20;43.01;101017.06;5034303;28;20028;-93
2023/09/14 10:41:56;;;;;;;3.10;1.20;;;;;;;25.61;41.83;101013.44;5035222;28;20080;-92
2023/09/14 10:44:22;;;;;;;2.63;1.40;;;;;;;26.07;42.09;101008.25;5035314;28;20022;-93
2023/09/14 10:46:52;;;;;;;2.97;1.33;;;;;;;26.30;41.77;101000.31;5034617;28;20480;-94
2023/09/14 10:49:22;;;;;;;2.17;0.90;;;;;;;26.54;42.13;101015.19;5034997;28;20057;-93
2023/09/14 10:51:48;;;;;;;3.67;1.30;;;;;;;26.47;41.10;101004.47;5035288;28;20033;-90
2023/09/14 10:54:14;;;;;;;3.58;1.30;;;;;;;26.57;41.70;101000.78;5035313;28;20025;-92
2023/09/14 10:56:39;;;;;;;3.90;1.20;;;;;;;26.73;42.11;100997.97;5034928;28;20032;-93
2023/09/14 10:59:08;;;;;;;3.25;1.20;;;;;;;26.86;42.26;100995.50;5034986;28;20152;-93
2023/09/14 11:01:45;;;;;;;6.63;1.58;;;;;;;26.52;43.47;100997.81;5034478;28;20044;-93
2023/09/14 11:04:18;;;;;;;4.22;1.20;;;;;;;26.48;42.63;101000.81;5035006;28;20021;-93
2023/09/14 11:06:49;;;;;;;2.00;1.00;;;;;;;26.53;42.50;100999.44;5033654;28;20022;-92
2023/09/14 11:09:16;;;;;;;2.88;1.20;;;;;;;25.99;42.19;101003.00;5034815;28;20064;-93
2023/09/14 11:11:44;;;;;;;4.28;1.27;;;;;;;25.24;43.09;101006.16;5034605;28;20018;-92
2023/09/14 11:14:11;;;;;;;3.92;1.50;;;;;;;25.69;44.41;101002.81;5034249;28;20052;-92